Aviation Digital Data Service (ADDS)

Output produced by TAFs form (0439 UTC 28 July 2017)
found at http://www.aviationweather.gov/adds/tafs/
 
METAR text: RJOR 280400Z 03012KT 9999 FEW008 SCT015 FEW025CB BKN030 28/24 Q1008
Conditions at: RJOR (TOTTORI AIRPORT , JP) observed 0400 UTC 28 July 2017
Temperature: 28.0°C (82°F)
Dewpoint: 24.0°C (75°F) [RH = 79%]
Pressure (altimeter): 29.76 inches Hg (1008.0 mb)
Winds: from the NNE (30 degrees) at 14 MPH (12 knots; 6.2 m/s)
Visibility: 6 or more miles (10+ km)
Ceiling: 3000 feet AGL
Clouds: few clouds at 800 feet AGL
scattered clouds at 1500 feet AGL
few clouds at 2500 feet AGL
broken clouds at 3000 feet AGL
Weather: no significant weather observed at this time